Port Macquarie Airport, New South Wales

12:32 PM AEST on August 01, 2015 (GMT +1000)
Sherwood Forest | | Change Station
CLOSE
Current Station
Personal Weather Station
Location: Port Macquarie, NEW SOUTH WALES
Elevation: 43 ft
Nearby Weather Stations

Elev 43 ft 31.45 °S, 152.87 °E | Updated 3 seconds ago

Clear
Clear
78.4 °F
Feels Like 77 °F
N
3.5
Wind Variable Wind from NNW
Gusts 4.5 mph

Today
High -- | Low -- °F
--% Chance of Precip.
Yesterday
High -- | Low -- °F
Precip. -- in
6:37 AM 5:13 PM
Waxing Gibbous, 99% visible
Pressure 30.09 in
Visibility 6.2 miles
Clouds
Heat Index 77 °F
Dew Point 2 °F
Humidity 5%
Rainfall 0.00 in
Snow Depth Not available.
UV Not available.
Pollen Not available.
Air Quality Not available.
Flu Activity Not available.
METAR YTRE 010200Z AUTO 29004KT 9999 // NCD 21/08 Q1019

More Conditions Fewer Conditions

Pressure 30.09 in
Visibility 6.2 miles
Clouds
Heat Index 77 °F
Dew Point 2 °F
Humidity 5%
Rainfall 0.00 in
Snow Depth Not available.
UV Not available.
Pollen Not available.
Air Quality Not available.
Flu Activity Not available.
METAR YTRE 010200Z AUTO 29004KT 9999 // NCD 21/08 Q1019

More Conditions Fewer Conditions

10-Day Weather Forecast

×

Almanac

Astronomy

Aug. 01, 2015 Rise Set
Actual Time
Civil Twilight
Nautical Twilight
Astronomical Twilight
Moon
Length of Visible Light
Length of Day
Tomorrow will be .
, % of the Moon is Illuminated

Today's Extremes

Country Highs Country Lows

Community

WunderPhotos

Upload Photos

1,842,829 photos uploaded!

WunderBlogs® & News

Nearby

Air Quality

  Air Quality AQ Index Pollutant
Not available.

Snow Depth

Station Depth Elevation

Earthquake Activity

City Distance Mag. Time & Date
Minimum magnitude displayed is 2.5.

Coastal Water Temperatures

Place Temperature

Stations

Nearby Weather Stations

Station Location Temp. Windchill Dew Point Humidity Wind Precip. Elev Updated Type